Udo Maru — JM6522 — position and weather

sailwx.info

Track history (hours):
 
Tides and Currents Weather Stations Pressure Air Temp Water Temp Dewpoint Dewpoint Depression Visibility Wind Speed Wind Dir Waves Ship Positions

Udo Maru

Last reported at 2015-Aug-29 06:32 UTC. Time now 2015-Aug-29 07:23 UTC.
Position N 35°23' E 139°45'.

Length 87 m; draft 4.9 m.

Type: Ship (hazmat cat A). MMSI: 431600499.

Date/timePositionNaut miles runAvg speedWind from/ knotsBaromVisibWave heightAir tempDewpointWater temp
2015-Aug-29 06:32N 35°23' E 139°45'0 0.0
2015-Aug-29 05:29N 35°23' E 139°45'0 0.0
2015-Aug-29 04:32N 35°23' E 139°45'0 0.0
2015-Aug-29 03:32N 35°23' E 139°45'0 0.0
2015-Aug-29 02:32N 35°23' E 139°45'0 0.0
2015-Aug-29 01:32N 35°23' E 139°45'0 0.0
2015-Aug-29 00:32N 35°23' E 139°45'0 0.0
2015-Aug-28 23:32N 35°23' E 139°45'0 0.0
2015-Aug-28 22:32N 35°23' E 139°45'0 0.0
2015-Aug-28 21:32N 35°23' E 139°45'0 0.0
2015-Aug-28 20:32N 35°23' E 139°45'0 0.0
2015-Aug-28 19:32N 35°23' E 139°45'0 0.0
2015-Aug-28 18:32N 35°23' E 139°45'0 0.0
2015-Aug-28 17:32N 35°23' E 139°45'0 0.0
2015-Aug-28 16:32N 35°23' E 139°45'0 0.0
2015-Aug-28 15:32N 35°23' E 139°45'0 0.0
2015-Aug-28 14:32N 35°23' E 139°45'0 0.0
2015-Aug-28 13:32N 35°23' E 139°45'0 0.0
2015-Aug-28 12:32N 35°23' E 139°45'0 0.0
2015-Aug-28 11:32N 35°23' E 139°45'0 0.0
2015-Aug-28 10:32N 35°23' E 139°45'0 0.0
2015-Aug-28 09:32N 35°23' E 139°45'0 0.2
2015-Aug-28 08:34N 35°23' E 139°45'1111.4
2015-Aug-28 07:33N 35°31' E 139°55'10 9.8
2015-Aug-28 06:33N 35°37' E 140°05'0 0.0
2015-Aug-28 05:33N 35°37' E 140°05'0 0.0
2015-Aug-28 04:33N 35°37' E 140°05'0 0.0
2015-Aug-28 03:33N 35°37' E 140°05'0 0.0
2015-Aug-28 02:32N 35°37' E 140°05'0 0.0
2015-Aug-28 01:33N 35°37' E 140°05'0 0.0
2015-Aug-28 00:33N 35°37' E 140°05'0 0.0
2015-Aug-27 23:33N 35°37' E 140°05'3 2.8
2015-Aug-27 22:33N 35°35' E 140°02'2 1.6
2015-Aug-27 21:33N 35°34' E 140°01'8 8.4
2015-Aug-27 20:33N 35°29' E 139°53'1010.0
2015-Aug-27 19:33N 35°21' E 139°45'9 9.0
2015-Aug-27 18:33N 35°12' E 139°47'1010.3
2015-Aug-27 17:33N 35°03' E 139°41'239 9.2
2015-Aug-26 15:30N 33°60' E 135°01'1111.4
2015-Aug-26 14:33N 34°10' E 134°59'1310.7
2015-Aug-26 13:18N 34°23' E 135°04'4 5.3
2015-Aug-26 12:29N 34°24' E 135°09'0 0.0
2015-Aug-26 11:29N 34°24' E 135°09'0 0.0
2015-Aug-26 10:29N 34°24' E 135°09'0 0.1
2015-Aug-26 09:29N 34°24' E 135°09'0 0.0
2015-Aug-26 06:29N 34°24' E 135°09'0 0.0
2015-Aug-26 05:29N 34°24' E 135°09'0 0.0
2015-Aug-26 04:29N 34°24' E 135°09'0 0.0
2015-Aug-25 23:23N 34°24' E 135°09'0 0.0
2015-Aug-25 22:29N 34°24' E 135°09'0 0.0
2015-Aug-25 20:05N 34°24' E 135°09'0 0.1
2015-Aug-25 19:29N 34°24' E 135°10'0 0.1
2015-Aug-25 18:29N 34°24' E 135°09'0 0.1
2015-Aug-25 17:17N 34°24' E 135°09'0 0.0
2015-Aug-25 16:23N 34°24' E 135°09'0 0.0
2015-Aug-25 15:29N 34°24' E 135°09'0 0.0
2015-Aug-25 14:17N 34°24' E 135°09'0 0.0
2015-Aug-25 12:11N 34°24' E 135°09'0 0.0
2015-Aug-25 07:29N 34°24' E 135°09'0 0.0
2015-Aug-25 06:29N 34°24' E 135°09'0 0.0
2015-Aug-25 05:29N 34°24' E 135°09'0 0.0
2015-Aug-25 04:29N 34°24' E 135°09'0 0.0
2015-Aug-25 03:23N 34°24' E 135°09'0 0.0
2015-Aug-25 02:11N 34°24' E 135°09'0 0.1
2015-Aug-25 01:29N 34°24' E 135°09'0 0.0
2015-Aug-24 22:17N 34°24' E 135°09'0 0.0
2015-Aug-24 21:32N 34°24' E 135°09'0 0.0
2015-Aug-24 20:32N 34°24' E 135°09'0 0.0
2015-Aug-24 19:11N 34°24' E 135°09'0 0.0
2015-Aug-24 17:17N 34°24' E 135°09'0 0.0
2015-Aug-24 16:29N 34°24' E 135°09'0 0.0
2015-Aug-24 15:29N 34°24' E 135°09'0 0.0
2015-Aug-24 14:11N 34°24' E 135°09'0 0.0
2015-Aug-24 13:29N 34°24' E 135°09'0 0.0
2015-Aug-24 12:23N 34°24' E 135°09'0 0.2
2015-Aug-24 11:33N 34°24' E 135°09'1110.6
2015-Aug-24 10:33N 34°34' E 135°04'  
Track history (hours):
 
Tides and Currents Weather Stations Pressure Air Temp Water Temp Dewpoint Dewpoint Depression Visibility Wind Speed Wind Dir Waves Ship Positions

Udo Maru

Last reported at 2015-Aug-29 06:32 UTC. Time now 2015-Aug-29 07:23 UTC.
Position N 35°23' E 139°45'.

Length 87 m; draft 4.9 m.

Type: Ship (hazmat cat A). MMSI: 431600499.

Date/timePositionNaut miles runAvg speedWind from/ knotsBaromVisibWave heightAir tempDewpointWater temp
2015-Aug-29 06:32N 35°23' E 139°45'0 0.0
2015-Aug-29 05:29N 35°23' E 139°45'0 0.0
2015-Aug-29 04:32N 35°23' E 139°45'0 0.0
2015-Aug-29 03:32N 35°23' E 139°45'0 0.0
2015-Aug-29 02:32N 35°23' E 139°45'0 0.0
2015-Aug-29 01:32N 35°23' E 139°45'0 0.0
2015-Aug-29 00:32N 35°23' E 139°45'0 0.0
2015-Aug-28 23:32N 35°23' E 139°45'0 0.0
2015-Aug-28 22:32N 35°23' E 139°45'0 0.0
2015-Aug-28 21:32N 35°23' E 139°45'0 0.0
2015-Aug-28 20:32N 35°23' E 139°45'0 0.0
2015-Aug-28 19:32N 35°23' E 139°45'0 0.0
2015-Aug-28 18:32N 35°23' E 139°45'0 0.0
2015-Aug-28 17:32N 35°23' E 139°45'0 0.0
2015-Aug-28 16:32N 35°23' E 139°45'0 0.0
2015-Aug-28 15:32N 35°23' E 139°45'0 0.0
2015-Aug-28 14:32N 35°23' E 139°45'0 0.0
2015-Aug-28 13:32N 35°23' E 139°45'0 0.0
2015-Aug-28 12:32N 35°23' E 139°45'0 0.0
2015-Aug-28 11:32N 35°23' E 139°45'0 0.0
2015-Aug-28 10:32N 35°23' E 139°45'0 0.0
2015-Aug-28 09:32N 35°23' E 139°45'0 0.2
2015-Aug-28 08:34N 35°23' E 139°45'1111.4
2015-Aug-28 07:33N 35°31' E 139°55'10 9.8
2015-Aug-28 06:33N 35°37' E 140°05'0 0.0
2015-Aug-28 05:33N 35°37' E 140°05'0 0.0
2015-Aug-28 04:33N 35°37' E 140°05'0 0.0
2015-Aug-28 03:33N 35°37' E 140°05'0 0.0
2015-Aug-28 02:32N 35°37' E 140°05'0 0.0
2015-Aug-28 01:33N 35°37' E 140°05'0 0.0
2015-Aug-28 00:33N 35°37' E 140°05'0 0.0
2015-Aug-27 23:33N 35°37' E 140°05'3 2.8
2015-Aug-27 22:33N 35°35' E 140°02'2 1.6
2015-Aug-27 21:33N 35°34' E 140°01'8 8.4
2015-Aug-27 20:33N 35°29' E 139°53'1010.0
2015-Aug-27 19:33N 35°21' E 139°45'9 9.0
2015-Aug-27 18:33N 35°12' E 139°47'1010.3
2015-Aug-27 17:33N 35°03' E 139°41'239 9.2
2015-Aug-26 15:30N 33°60' E 135°01'1111.4
2015-Aug-26 14:33N 34°10' E 134°59'1310.7
2015-Aug-26 13:18N 34°23' E 135°04'4 5.3
2015-Aug-26 12:29N 34°24' E 135°09'0 0.0
2015-Aug-26 11:29N 34°24' E 135°09'0 0.0
2015-Aug-26 10:29N 34°24' E 135°09'0 0.1
2015-Aug-26 09:29N 34°24' E 135°09'0 0.0
2015-Aug-26 06:29N 34°24' E 135°09'0 0.0
2015-Aug-26 05:29N 34°24' E 135°09'0 0.0
2015-Aug-26 04:29N 34°24' E 135°09'0 0.0
2015-Aug-25 23:23N 34°24' E 135°09'0 0.0
2015-Aug-25 22:29N 34°24' E 135°09'0 0.0
2015-Aug-25 20:05N 34°24' E 135°09'0 0.1
2015-Aug-25 19:29N 34°24' E 135°10'0 0.1
2015-Aug-25 18:29N 34°24' E 135°09'0 0.1
2015-Aug-25 17:17N 34°24' E 135°09'0 0.0
2015-Aug-25 16:23N 34°24' E 135°09'0 0.0
2015-Aug-25 15:29N 34°24' E 135°09'0 0.0
2015-Aug-25 14:17N 34°24' E 135°09'0 0.0
2015-Aug-25 12:11N 34°24' E 135°09'0 0.0
2015-Aug-25 07:29N 34°24' E 135°09'0 0.0
2015-Aug-25 06:29N 34°24' E 135°09'0 0.0
2015-Aug-25 05:29N 34°24' E 135°09'0 0.0
2015-Aug-25 04:29N 34°24' E 135°09'0 0.0
2015-Aug-25 03:23N 34°24' E 135°09'0 0.0
2015-Aug-25 02:11N 34°24' E 135°09'0 0.1
2015-Aug-25 01:29N 34°24' E 135°09'0 0.0
2015-Aug-24 22:17N 34°24' E 135°09'0 0.0
2015-Aug-24 21:32N 34°24' E 135°09'0 0.0
2015-Aug-24 20:32N 34°24' E 135°09'0 0.0
2015-Aug-24 19:11N 34°24' E 135°09'0 0.0
2015-Aug-24 17:17N 34°24' E 135°09'0 0.0
2015-Aug-24 16:29N 34°24' E 135°09'0 0.0
2015-Aug-24 15:29N 34°24' E 135°09'0 0.0
2015-Aug-24 14:11N 34°24' E 135°09'0 0.0
2015-Aug-24 13:29N 34°24' E 135°09'0 0.0
2015-Aug-24 12:23N 34°24' E 135°09'0 0.2
2015-Aug-24 11:33N 34°24' E 135°09'1110.6
2015-Aug-24 10:33N 34°34' E 135°04'  

Dump ship's entire track history